Time;durP1;ratioP1;P1;durP2;ratioP2;P2;SDS_P1;SDS_P2;PMS_P1;PMS_P2;Temp;Humidity;BMP_temperature;BMP_pressure;BME280_temperature;BME280_humidity;BME280_pressure;Samples;Min_cycle;Max_cycle;Signal;HPM_P1;HPM_P2
2023/04/19 00:01:35;;;;;;;9.63;8.77;;;9.70;99.90;;;;;;5053014;28;20203;-75
2023/04/19 00:04:01;;;;;;;10.30;9.23;;;9.70;99.90;;;;;;5047451;28;20177;-75
2023/04/19 00:06:29;;;;;;;11.00;9.93;;;9.70;99.90;;;;;;5056395;28;20631;-75
2023/04/19 00:08:55;;;;;;;11.95;10.00;;;9.50;99.90;;;;;;5048725;28;20191;-75
2023/04/19 00:11:20;;;;;;;11.05;9.95;;;9.50;99.90;;;;;;5043028;28;20176;-75
2023/04/19 00:13:48;;;;;;;10.82;9.73;;;9.40;99.90;;;;;;5035244;28;20179;-74
2023/04/19 00:16:13;;;;;;;12.45;11.25;;;9.50;99.90;;;;;;5049065;28;20214;-75
2023/04/19 00:18:39;;;;;;;12.40;11.10;;;9.40;99.90;;;;;;5043987;28;20201;-75
2023/04/19 00:21:05;;;;;;;12.18;10.98;;;9.40;99.90;;;;;;5047397;28;20195;-75
2023/04/19 00:23:31;;;;;;;14.15;11.32;;;9.30;99.90;;;;;;5052621;28;20218;-75
2023/04/19 00:25:56;;;;;;;12.00;10.50;;;9.30;99.90;;;;;;5052996;28;20698;-76
2023/04/19 00:28:23;;;;;;;12.80;11.07;;;9.20;99.90;;;;;;5039248;28;20181;-76
2023/04/19 00:30:49;;;;;;;14.05;11.18;;;9.10;99.90;;;;;;5049307;28;20188;-76
2023/04/19 00:33:14;;;;;;;11.98;10.75;;;9.10;99.90;;;;;;5033754;28;20715;-76
2023/04/19 00:35:41;;;;;;;10.85;9.75;;;9.00;99.90;;;;;;5055160;28;20319;-74
2023/04/19 00:38:07;;;;;;;12.57;10.75;;;9.00;99.90;;;;;;5056116;28;20576;-74
2023/04/19 00:40:32;;;;;;;13.77;10.65;;;8.90;99.90;;;;;;5050039;28;20175;-75
2023/04/19 00:42:58;;;;;;;12.02;10.77;;;8.90;99.90;;;;;;5050519;28;20177;-74
2023/04/19 00:45:24;;;;;;;11.93;10.45;;;8.90;99.90;;;;;;5046534;28;20196;-75
2023/04/19 00:47:50;;;;;;;13.27;10.93;;;8.90;99.90;;;;;;5052715;28;20187;-75
2023/04/19 00:50:16;;;;;;;12.77;11.43;;;8.90;99.90;;;;;;5048781;28;20194;-74
2023/04/19 00:52:43;;;;;;;14.07;12.45;;;8.90;99.90;;;;;;5055845;28;20184;-74
2023/04/19 00:55:08;;;;;;;12.85;11.55;;;8.80;99.90;;;;;;5045114;28;20200;-74
2023/04/19 00:57:36;;;;;;;12.98;11.68;;;8.70;99.90;;;;;;5052905;28;20183;-75
2023/04/19 01:00:05;;;;;;;12.25;10.98;;;8.60;99.90;;;;;;5058722;28;20528;-74
2023/04/19 01:02:30;;;;;;;12.05;10.75;;;8.50;99.90;;;;;;5047463;28;20635;-75
2023/04/19 01:04:56;;;;;;;14.55;11.35;;;8.40;99.90;;;;;;5050229;28;20262;-73
2023/04/19 01:07:22;;;;;;;12.15;10.77;;;8.30;99.90;;;;;;5046430;28;20168;-74
2023/04/19 01:09:47;;;;;;;12.40;11.05;;;8.20;99.90;;;;;;5050479;28;20180;-75
2023/04/19 01:12:13;;;;;;;12.48;11.18;;;8.20;99.90;;;;;;5053505;28;20176;-74
2023/04/19 01:14:39;;;;;;;12.60;11.20;;;8.10;99.90;;;;;;5051993;28;20200;-75
2023/04/19 01:17:06;;;;;;;13.70;11.43;;;8.00;99.90;;;;;;5048262;28;20168;-75
2023/04/19 01:19:33;;;;;;;15.88;12.40;;;7.90;99.90;;;;;;5051099;28;20211;-75
2023/04/19 01:21:59;;;;;;;13.35;11.95;;;7.80;99.90;;;;;;5047524;28;20275;-75
2023/04/19 01:24:25;;;;;;;16.95;12.48;;;7.80;99.90;;;;;;5052531;28;20283;-75
2023/04/19 01:26:50;;;;;;;13.25;11.85;;;7.70;99.90;;;;;;5053001;28;20176;-75
2023/04/19 01:29:17;;;;;;;13.77;11.95;;;7.60;99.90;;;;;;5042059;28;20186;-76
2023/04/19 01:31:47;;;;;;;14.43;12.50;;;7.50;99.90;;;;;;5050746;28;20256;-76
2023/04/19 01:34:13;;;;;;;13.18;10.98;;;7.50;99.90;;;;;;5049806;28;20210;-75
2023/04/19 01:36:39;;;;;;;14.27;12.63;;;7.40;99.90;;;;;;5050825;28;20184;-75
2023/04/19 01:39:04;;;;;;;14.20;12.48;;;7.40;99.90;;;;;;5060576;28;20199;-76
2023/04/19 01:41:31;;;;;;;15.23;12.27;;;7.30;99.90;;;;;;5048084;28;20663;-76
2023/04/19 01:43:56;;;;;;;15.50;12.63;;;7.20;99.90;;;;;;5052940;28;20163;-76
2023/04/19 01:46:22;;;;;;;17.77;12.75;;;7.20;99.90;;;;;;5050336;28;20238;-75
2023/04/19 01:48:48;;;;;;;13.25;11.55;;;7.10;99.90;;;;;;5044373;28;20190;-76
2023/04/19 01:51:13;;;;;;;14.50;12.38;;;7.00;99.90;;;;;;5046704;28;20194;-75
2023/04/19 01:53:39;;;;;;;17.60;13.77;;;7.00;99.90;;;;;;5056653;28;20600;-75
2023/04/19 01:56:05;;;;;;;17.88;14.32;;;7.00;99.90;;;;;;5047451;28;20249;-76
2023/04/19 01:58:30;;;;;;;20.30;15.27;;;7.10;99.90;;;;;;5045317;28;20202;-73
2023/04/19 02:00:56;;;;;;;20.05;14.30;;;7.10;99.90;;;;;;5047870;28;20262;-73
2023/04/19 02:03:21;;;;;;;18.50;14.65;;;7.00;99.90;;;;;;5048030;28;20607;-73
2023/04/19 02:05:47;;;;;;;19.45;15.02;;;7.20;99.90;;;;;;5052723;28;20230;-75
2023/04/19 02:08:12;;;;;;;18.45;15.25;;;7.00;99.90;;;;;;5048789;28;20660;-75
2023/04/19 02:10:38;;;;;;;19.27;15.25;;;7.00;99.90;;;;;;5045910;28;20177;-75
2023/04/19 02:13:03;;;;;;;21.80;15.65;;;7.00;99.90;;;;;;5049943;28;20203;-75
2023/04/19 02:15:29;;;;;;;18.42;14.40;;;7.00;99.90;;;;;;5052300;28;20203;-75
2023/04/19 02:17:55;;;;;;;20.40;16.85;;;6.90;99.90;;;;;;5049649;28;20282;-75
2023/04/19 02:20:20;;;;;;;19.15;15.65;;;6.90;99.90;;;;;;5044617;28;20192;-75
2023/04/19 02:22:46;;;;;;;18.77;14.80;;;6.90;99.90;;;;;;5048380;28;20200;-75
2023/04/19 02:25:12;;;;;;;18.38;14.90;;;7.00;99.90;;;;;;5047566;28;20203;-75
2023/04/19 02:27:38;;;;;;;17.50;15.00;;;6.90;99.90;;;;;;5057287;28;20221;-75
2023/04/19 02:30:04;;;;;;;17.38;14.98;;;6.90;99.90;;;;;;5042886;28;20699;-75
2023/04/19 02:32:29;;;;;;;20.23;15.75;;;6.90;99.90;;;;;;5046484;28;20253;-75
2023/04/19 02:34:55;;;;;;;21.33;15.90;;;6.80;99.90;;;;;;5045118;28;20192;-75
2023/04/19 02:37:20;;;;;;;19.48;15.20;;;6.80;99.90;;;;;;5049229;28;20589;-74
2023/04/19 02:39:46;;;;;;;17.48;14.98;;;6.80;99.90;;;;;;5052733;28;20211;-75
2023/04/19 02:42:11;;;;;;;20.08;16.00;;;6.80;99.90;;;;;;5048090;28;20178;-75
2023/04/19 02:44:37;;;;;;;19.38;15.30;;;6.90;99.90;;;;;;5048798;28;20578;-75
2023/04/19 02:47:03;;;;;;;17.30;14.57;;;6.80;99.90;;;;;;5046750;28;20176;-75
2023/04/19 02:49:33;;;;;;;20.60;16.40;;;6.80;99.90;;;;;;5045095;28;20275;-74
2023/04/19 02:51:59;;;;;;;18.25;14.85;;;6.90;99.90;;;;;;5048564;28;20188;-75
2023/04/19 02:54:24;;;;;;;16.30;14.60;;;6.80;99.90;;;;;;5033450;28;20334;-75
2023/04/19 02:56:50;;;;;;;18.75;15.00;;;6.70;99.90;;;;;;5041049;28;20206;-75
2023/04/19 02:59:15;;;;;;;17.10;14.93;;;6.70;99.90;;;;;;5040470;28;20200;-75
2023/04/19 03:01:41;;;;;;;20.40;15.68;;;6.70;99.90;;;;;;5048632;28;20662;-75
2023/04/19 03:04:06;;;;;;;19.52;15.18;;;6.80;99.90;;;;;;5053243;28;20557;-75
2023/04/19 03:06:32;;;;;;;21.90;16.42;;;6.80;99.90;;;;;;5033488;28;20180;-74
2023/04/19 03:08:57;;;;;;;20.42;16.15;;;6.70;99.90;;;;;;5039160;28;20179;-74
2023/04/19 03:11:23;;;;;;;21.65;16.88;;;6.70;99.90;;;;;;5051963;28;20179;-74
2023/04/19 03:13:48;;;;;;;20.88;15.23;;;6.70;99.90;;;;;;5043415;28;20693;-74
2023/04/19 03:16:15;;;;;;;21.77;16.55;;;6.60;99.90;;;;;;5047268;28;20207;-74
2023/04/19 03:18:40;;;;;;;19.92;15.63;;;6.60;99.90;;;;;;5051069;28;20207;-75
2023/04/19 03:21:08;;;;;;;22.65;17.00;;;6.60;99.90;;;;;;5049590;28;20664;-75
2023/04/19 03:23:34;;;;;;;22.48;16.67;;;6.60;99.90;;;;;;5034389;28;20286;-75
2023/04/19 03:25:59;;;;;;;21.27;17.33;;;6.60;99.90;;;;;;5047159;28;20334;-75
2023/04/19 03:28:26;;;;;;;21.92;16.55;;;6.60;99.90;;;;;;5052907;28;20175;-75
2023/04/19 03:30:52;;;;;;;20.27;16.95;;;6.60;99.90;;;;;;5037901;28;20252;-75
2023/04/19 03:33:17;;;;;;;21.00;16.92;;;6.50;99.90;;;;;;5054709;28;20602;-75
2023/04/19 03:35:43;;;;;;;21.17;17.52;;;6.60;99.90;;;;;;5058218;28;20200;-75
2023/04/19 03:38:09;;;;;;;22.55;15.75;;;6.50;99.90;;;;;;5057278;28;20234;-75
2023/04/19 03:40:36;;;;;;;22.95;15.88;;;6.50;99.90;;;;;;5048929;28;20180;-73
2023/04/19 03:43:02;;;;;;;20.15;15.27;;;6.40;99.90;;;;;;5059842;28;20182;-74
2023/04/19 03:45:28;;;;;;;19.67;16.58;;;6.30;99.90;;;;;;5044755;28;20282;-74
2023/04/19 03:47:54;;;;;;;19.75;16.60;;;6.40;99.90;;;;;;5056400;28;20182;-74
2023/04/19 03:50:19;;;;;;;20.27;16.42;;;6.40;99.90;;;;;;5047446;28;20706;-74
2023/04/19 03:52:45;;;;;;;19.30;16.20;;;6.30;99.90;;;;;;5055534;28;20194;-74
2023/04/19 03:55:13;;;;;;;20.25;16.52;;;6.30;99.90;;;;;;5051558;28;20207;-74
2023/04/19 03:57:39;;;;;;;22.42;17.25;;;6.30;99.90;;;;;;5049275;28;20183;-73
2023/04/19 04:00:08;;;;;;;21.55;17.38;;;6.30;99.90;;;;;;5052750;28;20180;-73
2023/04/19 04:02:38;;;;;;;23.70;17.63;;;6.30;99.90;;;;;;5051851;28;20659;-75
2023/04/19 04:05:05;;;;;;;20.55;16.83;;;6.30;99.90;;;;;;5037728;28;20287;-75
2023/04/19 04:07:30;;;;;;;21.05;17.00;;;6.30;99.90;;;;;;5045573;28;20744;-75
2023/04/19 04:09:56;;;;;;;19.27;15.88;;;6.20;99.90;;;;;;5045452;28;20172;-75
2023/04/19 04:12:21;;;;;;;17.92;15.50;;;6.20;99.90;;;;;;5048319;28;20176;-75
2023/04/19 04:14:47;;;;;;;17.85;15.20;;;6.20;99.90;;;;;;5053158;28;20203;-75
2023/04/19 04:17:12;;;;;;;21.73;16.13;;;6.20;99.90;;;;;;5047644;28;20287;-75
2023/04/19 04:19:38;;;;;;;21.73;16.50;;;6.10;99.90;;;;;;5059474;28;20696;-75
2023/04/19 04:22:04;;;;;;;18.95;15.25;;;6.10;99.90;;;;;;5045744;28;20187;-75
2023/04/19 04:24:31;;;;;;;20.15;16.23;;;6.10;99.90;;;;;;5058447;28;20196;-74
2023/04/19 04:26:59;;;;;;;19.33;15.32;;;6.10;99.90;;;;;;5050209;28;20239;-75
2023/04/19 04:29:25;;;;;;;19.05;15.63;;;6.10;99.90;;;;;;5048028;28;20238;-74
2023/04/19 04:31:51;;;;;;;21.42;15.23;;;6.10;99.90;;;;;;5043884;28;20177;-74
2023/04/19 04:34:16;;;;;;;18.10;15.23;;;6.10;99.90;;;;;;5045277;28;20600;-74
2023/04/19 04:36:42;;;;;;;20.00;15.43;;;6.10;99.90;;;;;;5055023;28;20207;-74
2023/04/19 04:39:10;;;;;;;18.88;15.73;;;6.10;99.90;;;;;;5046602;28;20195;-74
2023/04/19 04:41:36;;;;;;;21.52;17.90;;;6.10;99.90;;;;;;5050598;28;20627;-74
2023/04/19 04:44:03;;;;;;;18.95;16.05;;;6.10;99.90;;;;;;5053889;28;20183;-74
2023/04/19 04:46:29;;;;;;;20.35;16.85;;;6.10;99.90;;;;;;5055563;28;20172;-74
2023/04/19 04:48:54;;;;;;;23.13;17.80;;;6.20;99.90;;;;;;5044122;28;20258;-74
2023/04/19 04:51:20;;;;;;;22.23;16.42;;;6.20;99.90;;;;;;5048060;28;20181;-74
2023/04/19 04:53:46;;;;;;;20.70;16.88;;;6.20;99.90;;;;;;5054461;28;20189;-74
2023/04/19 04:56:11;;;;;;;22.70;17.48;;;6.30;99.90;;;;;;5048903;28;20737;-75
2023/04/19 04:58:37;;;;;;;24.33;18.30;;;6.30;99.90;;;;;;5045207;28;20210;-74
2023/04/19 05:01:03;;;;;;;21.67;17.58;;;6.40;99.90;;;;;;5046192;28;20184;-75
2023/04/19 05:03:28;;;;;;;22.45;17.83;;;6.40;99.90;;;;;;5053764;28;20655;-75
2023/04/19 05:05:55;;;;;;;21.25;16.80;;;6.50;99.90;;;;;;5048643;28;20571;-75
2023/04/19 05:08:20;;;;;;;21.75;16.88;;;6.60;99.90;;;;;;5046823;28;20605;-75
2023/04/19 05:10:46;;;;;;;20.33;15.35;;;6.60;99.90;;;;;;5051841;28;20196;-76
2023/04/19 05:13:12;;;;;;;23.38;17.02;;;6.70;99.90;;;;;;5045777;28;20660;-75
2023/04/19 05:15:37;;;;;;;19.75;17.13;;;6.70;99.90;;;;;;5052437;28;20322;-76
2023/04/19 05:18:03;;;;;;;19.10;16.35;;;6.80;99.90;;;;;;5052251;28;20674;-76
2023/04/19 05:20:29;;;;;;;23.02;17.23;;;6.90;99.90;;;;;;5055674;28;20609;-78
2023/04/19 05:23:02;;;;;;;19.10;15.40;;;7.00;99.90;;;;;;5031096;28;20595;-75
2023/04/19 05:25:28;;;;;;;20.27;17.17;;;7.00;99.90;;;;;;5048347;28;20198;-74
2023/04/19 05:27:55;;;;;;;24.35;17.80;;;7.10;99.90;;;;;;5046395;28;20188;-74
2023/04/19 05:30:20;;;;;;;22.77;17.25;;;7.20;99.90;;;;;;5045690;28;20226;-74
2023/04/19 05:32:46;;;;;;;21.63;17.25;;;7.50;99.90;;;;;;5050113;28;20192;-75
2023/04/19 05:35:11;;;;;;;20.13;17.05;;;7.60;99.90;;;;;;5051944;28;20702;-74
2023/04/19 05:37:37;;;;;;;18.77;16.88;;;7.80;99.90;;;;;;5044956;28;20271;-75
2023/04/19 05:40:04;;;;;;;19.75;16.35;;;7.90;99.90;;;;;;5048041;28;20203;-74
2023/04/19 05:42:30;;;;;;;20.02;16.48;;;8.10;99.90;;;;;;5048324;28;20180;-76
2023/04/19 05:44:56;;;;;;;18.08;15.68;;;8.20;99.90;;;;;;5044579;28;20573;-76
2023/04/19 05:47:21;;;;;;;18.02;15.52;;;8.40;99.90;;;;;;5048262;28;20194;-76
2023/04/19 05:49:47;;;;;;;17.35;14.65;;;8.60;99.90;;;;;;5047806;28;21334;-75
2023/04/19 05:52:12;;;;;;;18.40;14.90;;;8.60;99.90;;;;;;5036039;28;20203;-77
2023/04/19 05:54:38;;;;;;;17.33;15.23;;;8.70;99.90;;;;;;5050783;28;20238;-78
2023/04/19 05:57:04;;;;;;;16.45;14.77;;;8.70;99.90;;;;;;5040015;28;20183;-77
2023/04/19 05:59:29;;;;;;;16.23;14.38;;;8.80;99.90;;;;;;5049406;28;20205;-77
2023/04/19 06:01:55;;;;;;;17.70;15.52;;;8.90;99.90;;;;;;5044252;28;20188;-77
2023/04/19 06:04:21;;;;;;;17.05;14.13;;;8.90;99.90;;;;;;5047171;28;21577;-76
2023/04/19 06:06:46;;;;;;;17.27;14.32;;;9.00;99.90;;;;;;5048786;28;20176;-77
2023/04/19 06:09:16;;;;;;;16.48;14.63;;;9.10;99.90;;;;;;5045514;28;20203;-75
2023/04/19 06:11:42;;;;;;;15.55;13.63;;;9.20;99.90;;;;;;5050384;28;20211;-75
2023/04/19 06:14:09;;;;;;;18.80;14.38;;;9.20;99.90;;;;;;5052210;28;20196;-75
2023/04/19 06:16:35;;;;;;;19.00;14.30;;;9.20;99.90;;;;;;5046108;28;20184;-75
2023/04/19 06:19:00;;;;;;;15.95;14.35;;;9.30;99.90;;;;;;5045942;28;20214;-76
2023/04/19 06:21:28;;;;;;;14.15;12.75;;;9.40;99.90;;;;;;5051696;28;20201;-76
2023/04/19 06:23:54;;;;;;;14.05;12.52;;;9.60;99.90;;;;;;5043201;28;20184;-77
2023/04/19 06:26:20;;;;;;;15.57;13.43;;;9.50;99.90;;;;;;5046885;28;20216;-77
2023/04/19 06:28:46;;;;;;;13.43;11.65;;;9.50;99.90;;;;;;5046346;28;20206;-76
2023/04/19 06:31:11;;;;;;;13.90;12.50;;;9.60;99.90;;;;;;5049695;28;20176;-75
2023/04/19 06:33:37;;;;;;;13.80;12.25;;;9.80;99.90;;;;;;5048416;28;20191;-74
2023/04/19 06:36:03;;;;;;;13.65;11.95;;;9.80;99.90;;;;;;5048352;28;20713;-74
2023/04/19 06:38:29;;;;;;;13.40;11.82;;;9.90;99.90;;;;;;5047647;28;20294;-76
2023/04/19 06:40:54;;;;;;;13.10;11.70;;;10.10;99.90;;;;;;5048261;28;20659;-75
2023/04/19 06:43:20;;;;;;;16.73;12.57;;;10.10;99.90;;;;;;5047665;28;20674;-74
2023/04/19 06:45:46;;;;;;;13.15;11.75;;;10.00;99.90;;;;;;5052376;28;20199;-73
2023/04/19 06:48:12;;;;;;;13.93;11.85;;;10.10;99.90;;;;;;5045484;28;20658;-74
2023/04/19 06:50:37;;;;;;;12.90;11.60;;;10.10;99.90;;;;;;5046295;28;20266;-74
2023/04/19 06:53:03;;;;;;;14.43;11.82;;;10.10;99.90;;;;;;5050924;28;20655;-73
2023/04/19 06:55:29;;;;;;;12.93;11.20;;;9.90;99.90;;;;;;5052110;28;20690;-74
2023/04/19 06:57:54;;;;;;;13.00;11.63;;;9.80;99.90;;;;;;5039941;28;20253;-77
2023/04/19 07:00:21;;;;;;;15.52;11.43;;;9.70;99.90;;;;;;5029168;28;20176;-74
2023/04/19 07:02:49;;;;;;;14.20;12.70;;;9.50;99.90;;;;;;5047769;28;20255;-75
2023/04/19 07:05:14;;;;;;;12.95;11.65;;;9.40;99.90;;;;;;5047100;28;20195;-76
2023/04/19 07:07:40;;;;;;;13.38;11.98;;;9.40;99.90;;;;;;5050059;28;20270;-75
2023/04/19 07:10:07;;;;;;;14.75;13.32;;;9.40;99.90;;;;;;5050162;28;20177;-75
2023/04/19 07:12:33;;;;;;;14.07;12.60;;;9.50;99.90;;;;;;5055338;28;20187;-76
2023/04/19 07:14:58;;;;;;;14.82;13.23;;;9.40;99.90;;;;;;5047106;28;20196;-76
2023/04/19 07:17:24;;;;;;;14.52;12.80;;;9.30;99.90;;;;;;5043019;28;20179;-75
2023/04/19 07:19:50;;;;;;;17.38;13.50;;;9.20;99.90;;;;;;5048237;28;20258;-75
2023/04/19 07:22:15;;;;;;;15.15;13.50;;;9.10;99.90;;;;;;5047032;28;20287;-76
2023/04/19 07:24:43;;;;;;;17.42;13.70;;;9.00;99.90;;;;;;5048866;28;20714;-75
2023/04/19 07:27:09;;;;;;;15.30;13.65;;;8.90;99.90;;;;;;5032914;28;20215;-75
2023/04/19 07:29:35;;;;;;;15.43;13.50;;;8.80;99.90;;;;;;5043686;28;20216;-76
2023/04/19 07:32:01;;;;;;;17.00;15.13;;;8.80;99.90;;;;;;5051430;28;20175;-75
2023/04/19 07:34:26;;;;;;;19.35;13.85;;;8.70;99.90;;;;;;5049926;28;20211;-75
2023/04/19 07:36:52;;;;;;;15.98;14.38;;;8.70;99.90;;;;;;5052056;28;20179;-75
2023/04/19 07:39:18;;;;;;;15.50;13.23;;;8.60;99.90;;;;;;5041340;28;20612;-75
2023/04/19 07:41:45;;;;;;;17.83;14.88;;;8.70;99.90;;;;;;5036460;28;20302;-77
2023/04/19 07:44:12;;;;;;;20.27;15.57;;;8.60;99.90;;;;;;5052466;28;20714;-75
2023/04/19 07:46:37;;;;;;;16.77;13.73;;;8.60;99.90;;;;;;5044361;28;20669;-75
2023/04/19 07:49:03;;;;;;;16.10;14.32;;;8.70;99.90;;;;;;5048102;28;20191;-75
2023/04/19 07:51:28;;;;;;;16.85;14.30;;;8.70;99.90;;;;;;5048658;28;20183;-75
2023/04/19 07:53:54;;;;;;;16.92;15.10;;;8.70;99.90;;;;;;5047978;28;20180;-77
2023/04/19 07:56:22;;;;;;;16.92;14.57;;;8.70;99.90;;;;;;5050154;28;20246;-75
2023/04/19 07:58:47;;;;;;;16.90;13.63;;;8.70;99.90;;;;;;5055904;28;20282;-75
2023/04/19 08:01:13;;;;;;;17.00;14.52;;;8.70;99.90;;;;;;5053763;28;20671;-75
2023/04/19 08:03:38;;;;;;;15.23;13.75;;;8.70;99.90;;;;;;5054230;28;20191;-75
2023/04/19 08:06:07;;;;;;;15.77;14.07;;;8.70;99.90;;;;;;5049526;28;20236;-74
2023/04/19 08:08:33;;;;;;;16.13;14.07;;;8.70;99.90;;;;;;5048541;28;20183;-74
2023/04/19 08:10:59;;;;;;;14.93;13.43;;;8.70;99.90;;;;;;5053479;28;20176;-75
2023/04/19 08:13:25;;;;;;;18.35;14.32;;;8.70;99.90;;;;;;5060183;28;20401;-74
2023/04/19 08:15:50;;;;;;;17.40;14.52;;;8.70;99.90;;;;;;5050549;28;20298;-75
2023/04/19 08:18:16;;;;;;;16.50;14.65;;;8.80;99.90;;;;;;5055037;28;20708;-74
2023/04/19 08:20:42;;;;;;;16.30;14.02;;;8.80;99.90;;;;;;5049930;28;20204;-74
2023/04/19 08:23:08;;;;;;;16.05;13.93;;;8.80;99.90;;;;;;5055081;28;20253;-75
2023/04/19 08:25:34;;;;;;;18.98;15.50;;;8.80;99.90;;;;;;5055965;28;20281;-74
2023/04/19 08:28:00;;;;;;;16.52;14.73;;;8.80;99.90;;;;;;5058956;28;20175;-74
2023/04/19 08:30:26;;;;;;;15.50;13.65;;;9.00;99.90;;;;;;5055782;28;20179;-74
2023/04/19 08:32:51;;;;;;;16.63;14.18;;;9.00;99.90;;;;;;5051787;28;20271;-74
2023/04/19 08:35:17;;;;;;;14.35;12.77;;;9.10;99.90;;;;;;5052816;28;20215;-75
2023/04/19 08:37:43;;;;;;;14.90;13.05;;;9.30;99.90;;;;;;5048055;28;20188;-75
2023/04/19 08:40:10;;;;;;;17.38;13.32;;;9.20;99.90;;;;;;5052780;28;20183;-74
2023/04/19 08:42:35;;;;;;;15.77;13.25;;;9.10;99.90;;;;;;5055745;28;20279;-74
2023/04/19 08:45:04;;;;;;;15.93;13.95;;;9.00;99.90;;;;;;5056683;28;20248;-74
2023/04/19 08:47:33;;;;;;;14.57;12.98;;;8.90;99.90;;;;;;5048901;28;20187;-74
2023/04/19 08:50:04;;;;;;;15.10;13.40;;;9.00;99.90;;;;;;5053603;28;20813;-74
2023/04/19 08:52:33;;;;;;;15.85;14.27;;;9.00;99.90;;;;;;5041685;28;20180;-75
2023/04/19 08:55:04;;;;;;;15.18;13.45;;;9.00;99.90;;;;;;5043360;28;20318;-74
2023/04/19 08:57:31;;;;;;;14.32;12.75;;;9.10;99.90;;;;;;5043867;28;20206;-77
2023/04/19 09:00:00;;;;;;;14.77;13.27;;;9.30;99.90;;;;;;5054022;28;20199;-73
2023/04/19 09:02:26;;;;;;;14.65;13.15;;;9.50;99.90;;;;;;5032206;28;20187;-75
2023/04/19 09:04:52;;;;;;;14.98;13.48;;;9.50;99.90;;;;;;5048515;28;20191;-74
2023/04/19 09:07:25;;;;;;;15.60;13.20;;;9.40;99.90;;;;;;5042714;28;20191;-74
2023/04/19 09:10:12;;;;;;;15.45;13.75;;;9.30;99.90;;;;;;5049970;28;20651;-75
2023/04/19 09:12:39;;;;;;;15.07;12.85;;;9.40;99.90;;;;;;5045016;28;20179;-75
2023/04/19 09:15:07;;;;;;;13.68;12.20;;;9.60;99.90;;;;;;5045735;28;20679;-75
2023/04/19 09:17:34;;;;;;;14.25;12.82;;;9.60;99.90;;;;;;5048174;28;20561;-75
2023/04/19 09:19:59;;;;;;;13.98;12.60;;;9.60;99.90;;;;;;5052242;28;20210;-75
2023/04/19 09:22:25;;;;;;;15.45;13.80;;;9.30;99.90;;;;;;5048784;28;20191;-75
2023/04/19 09:24:51;;;;;;;15.93;13.80;;;9.20;99.90;;;;;;5050470;28;20198;-74
2023/04/19 09:27:31;;;;;;;15.10;12.98;;;9.20;99.90;;;;;;5056341;28;20536;-77
2023/04/19 09:29:59;;;;;;;14.45;12.23;;;9.20;99.90;;;;;;5041900;28;20187;-75
2023/04/19 09:32:26;;;;;;;17.80;13.50;;;9.20;99.90;;;;;;5049425;28;20178;-75
2023/04/19 09:34:56;;;;;;;14.38;12.98;;;9.10;99.90;;;;;;5049176;28;20229;-74
2023/04/19 09:37:23;;;;;;;13.85;12.43;;;9.20;99.90;;;;;;5042072;28;20274;-75
2023/04/19 09:39:49;;;;;;;14.57;13.07;;;9.20;99.90;;;;;;5051590;28;20225;-75
2023/04/19 09:42:17;;;;;;;14.88;13.25;;;9.30;99.90;;;;;;5051678;28;20184;-75
2023/04/19 09:44:57;;;;;;;15.98;12.73;;;9.40;99.90;;;;;;5051606;28;20210;-74
2023/04/19 09:47:25;;;;;;;13.43;12.10;;;9.30;99.90;;;;;;5046297;28;20220;-75
2023/04/19 09:50:10;;;;;;;13.30;11.90;;;9.30;99.90;;;;;;5044327;28;20176;-76
2023/04/19 09:52:36;;;;;;;12.65;11.45;;;9.40;99.90;;;;;;5045825;28;20372;-75
2023/04/19 09:55:04;;;;;;;11.43;10.25;;;9.70;99.90;;;;;;5047811;28;20305;-75
2023/04/19 09:57:31;;;;;;;12.57;11.15;;;9.40;99.90;;;;;;5045038;28;20234;-74
2023/04/19 10:00:00;;;;;;;11.77;10.32;;;9.20;99.90;;;;;;5051881;28;20280;-75
2023/04/19 10:02:31;;;;;;;11.82;10.60;;;8.90;99.90;;;;;;5044175;28;20187;-76
2023/04/19 10:04:58;;;;;;;11.25;10.02;;;8.90;99.90;;;;;;5047551;28;20207;-76
2023/04/19 10:07:25;;;;;;;12.50;11.30;;;8.90;99.90;;;;;;5053898;28;20178;-77
2023/04/19 10:09:56;;;;;;;14.05;12.60;;;8.90;99.90;;;;;;5054368;28;20180;-77
2023/04/19 10:12:25;;;;;;;13.70;12.05;;;8.80;99.90;;;;;;5050412;28;20183;-77
2023/04/19 10:14:51;;;;;;;14.90;12.45;;;8.50;99.90;;;;;;5043927;28;20662;-77
2023/04/19 10:17:17;;;;;;;15.13;13.07;;;8.30;99.90;;;;;;5051303;28;20194;-76
2023/04/19 10:19:44;;;;;;;13.52;12.10;;;8.30;99.90;;;;;;5049760;28;20225;-77
2023/04/19 10:22:11;;;;;;;15.85;14.10;;;8.30;99.90;;;;;;5041634;28;20679;-76
2023/04/19 10:24:37;;;;;;;15.45;13.25;;;8.30;99.90;;;;;;5029393;28;20235;-75
2023/04/19 10:27:13;;;;;;;13.73;12.43;;;8.40;99.90;;;;;;5048666;28;20191;-76
2023/04/19 10:29:50;;;;;;;13.18;11.77;;;8.20;99.90;;;;;;5047851;28;20603;-76
2023/04/19 10:32:16;;;;;;;13.77;12.30;;;8.10;99.90;;;;;;5052061;28;20274;-76
2023/04/19 10:34:44;;;;;;;12.82;11.52;;;8.00;99.90;;;;;;5051583;28;20291;-76
2023/04/19 10:37:10;;;;;;;13.40;12.02;;;7.90;99.90;;;;;;5051855;28;20178;-76
2023/04/19 10:39:44;;;;;;;14.13;12.70;;;7.90;99.90;;;;;;5040732;28;20206;-76
2023/04/19 10:42:11;;;;;;;15.90;13.85;;;7.80;99.90;;;;;;5043863;28;20519;-76
2023/04/19 10:44:37;;;;;;;14.75;13.25;;;7.80;99.90;;;;;;5048240;28;20561;-76
2023/04/19 10:47:04;;;;;;;18.42;14.70;;;7.80;99.90;;;;;;5047984;28;20266;-77
2023/04/19 10:49:30;;;;;;;16.60;13.95;;;7.80;99.90;;;;;;5047276;28;20176;-76
2023/04/19 10:51:59;;;;;;;14.80;13.20;;;8.00;99.90;;;;;;5037881;28;20241;-78
2023/04/19 10:54:30;;;;;;;15.45;13.48;;;8.10;99.90;;;;;;5053845;28;20203;-77
2023/04/19 10:56:59;;;;;;;15.15;13.45;;;8.20;99.90;;;;;;5036164;28;20187;-77
2023/04/19 10:59:25;;;;;;;15.27;13.77;;;8.00;99.90;;;;;;5046594;28;20253;-77
2023/04/19 11:01:52;;;;;;;13.80;12.50;;;8.00;99.90;;;;;;5043741;28;20838;-76
2023/04/19 11:04:38;;;;;;;13.20;12.00;;;8.00;99.90;;;;;;5043967;28;20655;-77
2023/04/19 11:07:06;;;;;;;12.52;11.23;;;7.90;99.90;;;;;;5025753;28;20207;-76
2023/04/19 11:09:40;;;;;;;13.75;12.35;;;8.10;99.90;;;;;;5046369;28;20221;-77
2023/04/19 11:12:07;;;;;;;13.80;11.88;;;7.80;99.90;;;;;;5045555;28;20662;-77
2023/04/19 11:14:48;;;;;;;12.35;11.05;;;7.80;99.90;;;;;;5051395;28;20212;-82
2023/04/19 11:17:15;;;;;;;12.63;11.32;;;7.90;99.90;;;;;;5045550;28;20180;-76
2023/04/19 11:19:54;;;;;;;13.18;10.75;;;7.90;99.90;;;;;;5045161;28;20204;-77
2023/04/19 11:22:30;;;;;;;11.18;10.07;;;7.90;99.90;;;;;;5037398;28;20186;-77
2023/04/19 11:24:56;;;;;;;11.90;10.70;;;7.80;99.90;;;;;;5042044;28;20187;-77
2023/04/19 11:27:21;;;;;;;12.13;11.02;;;7.80;99.90;;;;;;5053275;28;20564;-76
2023/04/19 11:29:47;;;;;;;12.07;10.43;;;7.80;99.90;;;;;;5043260;28;20253;-76
2023/04/19 11:32:13;;;;;;;13.32;11.13;;;7.70;99.90;;;;;;5050341;28;20192;-78
2023/04/19 11:34:39;;;;;;;12.88;11.55;;;7.60;99.90;;;;;;5046489;28;20196;-76
2023/04/19 11:37:05;;;;;;;12.25;10.52;;;7.40;99.90;;;;;;5046905;28;20194;-76
2023/04/19 11:39:30;;;;;;;11.65;10.45;;;7.50;99.90;;;;;;5047373;28;20208;-77
2023/04/19 11:41:57;;;;;;;11.57;10.45;;;7.40;99.90;;;;;;5054265;28;20810;-76
2023/04/19 11:44:23;;;;;;;13.18;11.77;;;7.50;99.90;;;;;;5058599;28;20208;-76
2023/04/19 11:47:02;;;;;;;12.45;11.15;;;7.60;99.90;;;;;;5056218;28;20239;-76
2023/04/19 11:49:33;;;;;;;11.68;10.50;;;7.70;99.90;;;;;;5051357;28;20569;-76
2023/04/19 11:52:00;;;;;;;11.32;10.20;;;7.70;99.90;;;;;;5034869;28;20665;-76
2023/04/19 11:54:26;;;;;;;11.10;9.90;;;7.80;99.90;;;;;;5044053;28;20243;-76
2023/04/19 11:57:04;;;;;;;12.13;10.15;;;8.00;99.90;;;;;;5032165;28;20202;-78
2023/04/19 11:59:31;;;;;;;11.95;10.02;;;8.00;99.90;;;;;;5047070;28;20721;-77
2023/04/19 12:02:04;;;;;;;11.10;9.27;;;8.00;99.90;;;;;;5052200;28;20184;-77
2023/04/19 12:04:30;;;;;;;9.77;8.88;;;8.10;99.90;;;;;;5052478;28;20278;-77
2023/04/19 12:06:58;;;;;;;9.38;8.35;;;8.50;99.90;;;;;;5055138;28;20703;-76
2023/04/19 12:09:24;;;;;;;10.82;9.73;;;8.70;99.90;;;;;;5056915;28;20180;-76
2023/04/19 12:11:49;;;;;;;9.80;8.77;;;8.90;99.90;;;;;;5049552;28;20615;-76
2023/04/19 12:14:18;;;;;;;10.95;8.40;;;9.00;99.90;;;;;;5054867;28;20278;-78
2023/04/19 12:16:44;;;;;;;10.20;9.25;;;9.30;99.90;;;;;;5048614;28;20723;-78
2023/04/19 12:19:14;;;;;;;9.10;8.07;;;9.30;99.90;;;;;;5055581;28;20334;-78
2023/04/19 12:21:40;;;;;;;9.02;8.23;;;9.60;99.90;;;;;;5037546;28;20279;-78
2023/04/19 12:24:06;;;;;;;8.43;7.72;;;10.10;99.90;;;;;;5057797;28;20266;-79
2023/04/19 12:26:32;;;;;;;8.15;7.50;;;10.20;99.90;;;;;;5049827;28;20639;-78
2023/04/19 12:28:59;;;;;;;8.02;7.32;;;10.30;99.90;;;;;;5053809;28;20308;-78
2023/04/19 12:31:25;;;;;;;7.95;7.25;;;10.60;99.90;;;;;;5054342;28;20187;-78
2023/04/19 12:33:52;;;;;;;8.10;7.30;;;11.00;99.90;;;;;;5035146;28;20667;-77
2023/04/19 12:36:18;;;;;;;8.88;7.57;;;10.60;99.90;;;;;;5037359;28;20207;-78